This is the latest recevied weather packets stored in our database for station/object N4DWK. If no packets are shown the sender has not sent any weather packets the latest 10 day(s).
| Time | Temp. | Humidity | Pressure | Rain* | Wind** | Luminosity | Snow |
|---|---|---|---|---|---|---|---|
| 1777407305 | 18.89° C | 68% | 1017.6 hPa | 0 mm | - | 142 W/m² | - |
| 1777406106 | 18.89° C | 68% | 1018 hPa | 0 mm | - | 127 W/m² | - |
| 1777404905 | 18.33° C | 68% | 1018.2 hPa | 0 mm | - | 104 W/m² | - |
| 1777404006 | 18.33° C | 68% | 1018.4 hPa | 0 mm | - | 95 W/m² | - |
| 1777402805 | 18.33° C | 66% | 1018.8 hPa | 0 mm | - | 54 W/m² | - |
| 1777402506 | 18.89° C | 66% | 1018.7 hPa | 0 mm | - | 69 W/m² | - |
| 1777400405 | 18.89° C | 64% | 1019 hPa | 0 mm | - | 645 W/m² | - |
| 1777399805 | 19.44° C | 64% | 1019.1 hPa | 0 mm | - | 661 W/m² | - |
| 1777398906 | 18.89° C | 63% | 1019.6 hPa | 0 mm | - | 652 W/m² | - |
| 1777397705 | 18.33° C | 65% | 1019.6 hPa | 0 mm | - | 540 W/m² | - |
| 1777397104 | 17.78° C | 65% | 1019.7 hPa | 0 mm | - | 568 W/m² | - |
| 1777396805 | 17.22° C | 68% | 1019.6 hPa | 0 mm | - | 540 W/m² | - |
| 1777396205 | 16.67° C | 69% | 1019.9 hPa | 0 mm | - | 383 W/m² | - |
| 1777393805 | 14.44° C | 74% | 1020.6 hPa | 0 mm | - | 236 W/m² | - |
| 1777393505 | 13.89° C | 74% | 1020.8 hPa | 0 mm | - | 195 W/m² | - |
| 1777392005 | 12.78° C | 77% | 1022 hPa | 0 mm | - | 58 W/m² | - |
| 1777391105 | 13.33° C | 77% | 1022.2 hPa | 0 mm | - | 58 W/m² | - |
| 1777390205 | 13.33° C | 77% | 1021.8 hPa | 0 mm | - | 58 W/m² | - |
| 1777387506 | 12.22° C | 74% | 1021 hPa | 0 mm | - | 53 W/m² | - |
| 1777385704 | 11.67° C | 76% | 1021.8 hPa | 0 mm | - | 58 W/m² | - |
| 1777385405 | 11.67° C | 76% | 1021.7 hPa | 0 mm | - | 56 W/m² | - |
| 1777383605 | 10.56° C | 82% | 1021.3 hPa | 0 mm | - | 40 W/m² | - |
| 1777383305 | 10.56° C | 83% | 1021.1 hPa | 0 mm | - | 35 W/m² | - |
| 1777383005 | 10.56° C | 84% | 1021.1 hPa | 0 mm | - | 37 W/m² | - |
| 1777382404 | 10.56° C | 86% | 1021.4 hPa | 0 mm | - | 42 W/m² | - |
* Rain latest hour (hover to see other rain measurements)
** Current wind speed in m/s (hover to see current wind gust speed)